Airfield :
LOGIN :

Register | Disclaimer

   EN    FR    IT 

 










Legend :    VFR   Marginal VFR   IFR   Intensive IFR   Very Intensive IFR
Visi :
Ceiling :
>= 8 km
>= 3000ft
5 to 8 km
1000 to 3000 ft
1500m to 5 km
500 to 1000 ft
800 to 1500m
200 to 500 ft
< 800m
< 200 ft
Symbols :   Thunderstorms  Fog  Heavy snow  Heavy precipitations  Wind > 20 kt
SIGMETs :     Misc.  Thunderstorms  Icing  Turbulence  Mountain Waves  Volcanic Ashes






- Airport Elevation : 313 ft
- IATA code : LEH


LFOH - Le Havre Octeville

CURRENT METAR :
  • 160330Z AUTO 19012KT 160V220 5000 RA BR BKN007/// OVC012/// ///CB 13/12 Q1005

EXPIRED METARs :
  • 160300Z AUTO 18013KT 150V210 5000 RA BR OVC008/// ///CB 13/12 Q1005
  • 160230Z AUTO 16010KT 7000 -RA BKN006/// OVC011/// ///CB 13/12 Q1005
  • 160200Z AUTO 17012KT 4800 RA BR BKN008/// OVC013/// ///TCU 13/12 Q1006
  • 160130Z AUTO 18010KT 6000 -RA BKN012 BKN032 BKN044 13/11 Q1007

TAF AMD TAF LFOH
Valid from the 15 at 16:00 until the 16 at 12:00 UTC


151620Z 1516/1612 23012KT 9999 BKN020
TEMPO 1516/1518 23020G30KT 3000 TSRA BKN012CB
BECMG 1520/1523 17015KT
TEMPO 1523/1612 17020G30KT 3000 RADZ BKN006 OVC013
ATIS : +33 2 35 54 64 93



MET'MAP, your aeronautical weather chart ! - Copyright ORBIFLY December 2007 - Disclaimer

ORBIFLY MET'MAP TEAM :

Programming & Development : Alexandra Zaïnal
Concept & Development : Baudouin d'Aumeries
Co-Development & Prog : Marc-Olivier Méhu
Technical & hardware support : Manuel Goepfert

Contact : metmap@orbifly.com




SOURCES & CREDITS :

   NOAA